»·PEaware :: PSV265 UHHH-KSLC

PSV265 :: UHHH-KSLC

FLIGHT INFORMATION

Flight Status: Arrived
Operator:
Power Set Virtual (website)
More flights by this operator :: More flights under this callsign
Pilot: Scott L. (17677)
Aircraft: Unknown
(A359)
More flights by this aircraft type
Origin: UHHH Novy
Russian Federation
Destination: KSLC Salt Lake City Intl
United States
More flights between these airports :: More routes between these airports
Route: TROI2D FI G212 TERBO/K0907F370 B913 ABOMA AMETO TK/K0920F250 G370 RUSOR/N0495F390 B241 ENM AMOTT MURYY/N0492F410 IDAME FLIPS J195 ANN J502 DUGGS YVR PSC BYI SKEES5
File this flight plan on PilotEdge
Remarks: RMK / SIMBRIEF
Altitude:
(Current/Filed)
35,000ft
Speed:
(Current/Filed)
482kts
Departed: 14-Dec-20 12:15 PM
Arrived: 14-Dec-20 04:29 PM
Distance/Time
Traveled:
4371nm/4:13
Distance/Time
To Go:
Arrived

Flight Plot

Page will automatically refresh every two minutes.

Flight plan parsing failed; only flown route is shown


Map Options




Map Legend


Flown Route
Filed Route
Departure Airport
Arrival Airport
Navaid (VOR, NDB)
Fix

Horizontal Profiles

Position Reports

Time Latitude Longitude Heading Altitude Ground
Speed
14-Dec-20 12:11 48.523570 135.176750 131 257ft 0kts
14-Dec-20 12:12 48.522272 135.178847 133 257ft 13kts
14-Dec-20 12:13 48.523340 135.184560 42 257ft 37kts
14-Dec-20 12:14 48.533852 135.198976 44 257ft 52kts
14-Dec-20 12:15 48.539098 135.202530 167 257ft 1kts
14-Dec-20 12:16 48.539041 135.202581 142 257ft 0kts
14-Dec-20 12:17 48.539041 135.202581 142 257ft 0kts
14-Dec-20 12:18 48.538340 135.204788 63 257ft 9kts
14-Dec-20 12:19 48.540399 135.207719 30 257ft 10kts
14-Dec-20 12:20 48.540416 135.207844 221 257ft 5kts
14-Dec-20 12:21 48.531332 135.195480 222 258ft 141kts
14-Dec-20 12:22 48.495887 135.147469 223 2460ft 191kts
14-Dec-20 12:23 48.450633 135.086151 224 4964ft 239kts
14-Dec-20 12:24 48.435839 135.000813 312 7075ft 244kts
14-Dec-20 12:25 48.500483 134.986741 29 9232ft 261kts
14-Dec-20 12:26 48.564313 135.044847 27 10867ft 287kts
14-Dec-20 12:27 48.638889 135.109730 28 12386ft 317kts
14-Dec-20 12:28 48.716471 135.177118 27 14299ft 328kts
14-Dec-20 12:29 48.821019 135.268135 27 16432ft 342kts
14-Dec-20 12:30 48.971729 135.458365 43 19496ft 360kts
14-Dec-20 12:31 49.121135 135.691311 47 20344ft 403kts
14-Dec-20 12:32 49.282611 135.946110 47 22322ft 427kts
14-Dec-20 12:33 49.451907 136.215727 47 24473ft 446kts
14-Dec-20 12:34 49.490476 136.570734 106 26320ft 457kts
14-Dec-20 12:35 49.537523 136.865893 30 27642ft 476kts
14-Dec-20 12:36 49.652993 136.969993 34 28796ft 483kts
14-Dec-20 12:37 49.767204 137.082225 32 30142ft 484kts
14-Dec-20 12:38 49.882122 137.191709 31 31528ft 483kts
14-Dec-20 12:40 50.016054 137.319601 31 32992ft 481kts
14-Dec-20 12:40 50.111091 137.410840 31 33957ft 478kts
14-Dec-20 12:41 50.224397 137.519716 31 34946ft 477kts
14-Dec-20 12:42 50.382464 137.673290 32 35065ft 478kts
14-Dec-20 12:43 50.609348 137.896471 32 35066ft 478kts
14-Dec-20 12:44 50.834750 138.120364 33 35058ft 478kts
14-Dec-20 12:45 51.009865 138.430903 61 35066ft 474kts
14-Dec-20 12:46 51.143127 138.792256 60 35067ft 468kts
14-Dec-20 12:47 51.277379 139.147486 60 35065ft 466kts
14-Dec-20 12:48 51.410624 139.506644 60 35067ft 466kts
14-Dec-20 12:49 51.542647 139.868033 61 34994ft 465kts
14-Dec-20 12:50 51.672012 140.229189 61 34659ft 467kts
14-Dec-20 12:51 51.801295 140.595589 61 34567ft 468kts
14-Dec-20 12:52 51.928851 140.962900 62 34551ft 466kts
14-Dec-20 12:53 52.054921 141.330669 63 34544ft 471kts
14-Dec-20 12:54 52.183177 141.708389 63 34547ft 473kts
14-Dec-20 12:55 52.310050 142.088219 63 34544ft 472kts
14-Dec-20 12:56 52.435771 142.470519 63 34545ft 474kts
14-Dec-20 12:57 52.559596 142.853239 64 34544ft 473kts
14-Dec-20 12:58 52.682256 143.236990 64 34544ft 461kts
14-Dec-20 12:59 52.800975 143.614931 64 34541ft 461kts
14-Dec-20 13:00 52.917703 143.993606 65 34543ft 460kts
14-Dec-20 13:01 53.033750 144.375453 66 34546ft 467kts
14-Dec-20 13:02 53.148415 144.758025 68 34546ft 465kts
14-Dec-20 13:03 53.264621 145.153332 68 34545ft 465kts
14-Dec-20 13:04 53.379050 145.549483 68 34543ft 467kts
14-Dec-20 13:05 53.506112 145.934806 54 34539ft 474kts
14-Dec-20 13:06 53.709744 146.213069 42 34553ft 466kts
14-Dec-20 13:07 53.916678 146.483540 43 34609ft 464kts
14-Dec-20 13:08 54.121552 146.756407 44 34622ft 464kts
14-Dec-20 13:09 54.325799 147.030942 44 34626ft 467kts
14-Dec-20 13:10 54.529258 147.308548 44 34623ft 466kts
14-Dec-20 13:11 54.733745 147.591382 43 34627ft 467kts
14-Dec-20 13:12 54.936297 147.875632 45 34625ft 466kts
14-Dec-20 13:13 55.138357 148.162476 46 34624ft 465kts
14-Dec-20 13:14 55.340251 148.452362 46 34625ft 465kts
14-Dec-20 13:15 55.541103 148.745737 47 34625ft 464kts
14-Dec-20 13:16 55.739133 149.039335 46 34628ft 461kts
14-Dec-20 13:17 55.936596 149.335248 46 34622ft 460kts
14-Dec-20 13:18 56.133154 149.633969 45 34624ft 460kts
14-Dec-20 13:20 56.328879 149.935372 46 34626ft 459kts
14-Dec-20 13:21 56.522584 150.238287 46 34622ft 459kts
14-Dec-20 13:22 56.716517 150.545820 46 34625ft 458kts
14-Dec-20 13:23 56.939516 150.905541 47 34624ft 458kts
14-Dec-20 13:24 57.330073 151.547948 46 34623ft 474kts
14-Dec-20 13:25 57.722960 152.215758 47 34625ft 474kts
14-Dec-20 13:26 58.111818 152.897145 47 34621ft 473kts
14-Dec-20 13:27 58.437469 153.652238 75 34634ft 453kts
14-Dec-20 13:28 58.623833 154.584216 71 34626ft 473kts
14-Dec-20 13:29 58.814176 155.530846 73 34625ft 459kts
14-Dec-20 13:30 58.992525 156.461461 74 34623ft 461kts
14-Dec-20 13:31 59.165794 157.407256 75 34257ft 469kts
14-Dec-20 13:32 59.337267 158.394933 76 33947ft 473kts
14-Dec-20 13:33 59.497291 159.369933 76 33909ft 478kts
14-Dec-20 13:34 59.650965 160.357966 77 33904ft 477kts
14-Dec-20 13:34 59.771762 161.181801 76 33906ft 477kts
14-Dec-20 13:35 59.912090 162.187198 77 33905ft 477kts
14-Dec-20 13:37 60.062302 163.347991 76 33899ft 472kts
14-Dec-20 13:37 60.158754 164.132125 77 33898ft 472kts
14-Dec-20 13:38 60.260315 165.021298 77 33905ft 472kts
14-Dec-20 13:40 60.387347 166.211316 76 33899ft 472kts
14-Dec-20 13:41 60.494048 167.186935 75 34098ft 478kts
14-Dec-20 13:41 60.583394 168.069348 76 34272ft 479kts
14-Dec-20 13:42 60.680058 169.109390 77 34458ft 483kts
14-Dec-20 13:43 60.771857 170.194691 77 36540ft 482kts
14-Dec-20 13:44 60.854592 171.280173 78 36818ft 484kts
14-Dec-20 13:45 60.929203 172.385701 79 36866ft 485kts
14-Dec-20 13:46 60.998029 173.501522 80 36875ft 484kts
14-Dec-20 13:47 61.059576 174.615648 81 36877ft 484kts
14-Dec-20 13:48 61.112016 175.726386 84 36876ft 481kts
14-Dec-20 13:49 61.155594 176.852775 85 36875ft 481kts
14-Dec-20 13:50 61.189222 177.969292 86 36876ft 478kts
14-Dec-20 13:51 61.213722 179.086837 87 36877ft 476kts
14-Dec-20 13:52 61.228766 -179.811047 88 36865ft 473kts
14-Dec-20 13:53 61.234779 -178.699432 89 36724ft 474kts
14-Dec-20 13:54 61.295927 -177.617388 58 36687ft 475kts
14-Dec-20 13:55 61.549710 -176.635373 63 36688ft 479kts
14-Dec-20 13:56 61.790307 -175.598045 64 36685ft 492kts
14-Dec-20 13:57 62.025003 -174.532832 65 36686ft 490kts
14-Dec-20 13:58 62.251122 -173.456407 66 36686ft 490kts
14-Dec-20 13:59 62.465139 -172.378541 67 36660ft 491kts
14-Dec-20 14:00 62.627322 -171.271952 87 36638ft 490kts
14-Dec-20 14:01 62.669683 -170.092694 85 36626ft 488kts
14-Dec-20 14:02 62.709622 -168.914781 86 36622ft 488kts
14-Dec-20 14:03 62.742938 -167.732126 87 36563ft 487kts
14-Dec-20 14:04 62.766586 -166.564677 88 36481ft 489kts
14-Dec-20 14:05 62.780310 -165.424384 89 36481ft 489kts
14-Dec-20 14:06 62.769949 -164.242131 102 36514ft 487kts
14-Dec-20 14:07 62.657928 -163.179177 102 36491ft 487kts
14-Dec-20 14:08 62.545049 -162.106983 105 36491ft 486kts
14-Dec-20 14:09 62.439821 -161.178758 106 36495ft 485kts
14-Dec-20 14:10 62.317982 -160.174630 107 36510ft 485kts
14-Dec-20 14:11 62.175889 -159.081155 108 36522ft 485kts
14-Dec-20 14:12 62.019864 -157.960991 110 36530ft 484kts
14-Dec-20 14:13 61.866810 -156.929945 112 36532ft 486kts
14-Dec-20 14:14 61.692490 -155.829023 113 36478ft 490kts
14-Dec-20 14:15 61.502337 -154.693764 116 36430ft 492kts
14-Dec-20 14:16 61.306757 -153.599252 117 36422ft 493kts
14-Dec-20 14:17 61.140491 -152.713128 117 36494ft 496kts
14-Dec-20 14:18 60.938602 -151.688473 118 36528ft 497kts
14-Dec-20 14:19 60.734886 -150.517593 114 36550ft 501kts
14-Dec-20 14:20 60.553520 -149.470560 115 36562ft 500kts
14-Dec-20 14:21 60.323972 -148.495135 126 36575ft 498kts
14-Dec-20 14:22 60.047958 -147.529062 125 36580ft 501kts
14-Dec-20 14:23 59.761940 -146.572341 126 36616ft 501kts
14-Dec-20 14:24 59.467753 -145.624464 126 36611ft 497kts
14-Dec-20 14:25 59.247873 -144.615066 117 36619ft 493kts
14-Dec-20 14:26 59.030377 -143.646452 118 36631ft 489kts
14-Dec-20 14:27 58.806578 -142.692424 117 36634ft 493kts
14-Dec-20 14:28 58.571708 -141.729773 118 36710ft 488kts
14-Dec-20 14:29 58.330166 -140.783067 119 36725ft 493kts
14-Dec-20 14:30 58.079809 -139.841465 119 36726ft 500kts
14-Dec-20 14:31 57.819592 -138.905037 120 36726ft 502kts
14-Dec-20 14:32 57.417810 -137.526893 121 36830ft 503kts
14-Dec-20 14:33 56.839828 -135.673891 123 36766ft 506kts
14-Dec-20 14:34 55.441044 -132.526707 126 36585ft 513kts
14-Dec-20 14:35 54.105963 -129.235572 125 36798ft 531kts
14-Dec-20 14:36 53.595649 -127.038794 90 37037ft 533kts
14-Dec-20 14:37 53.440998 -126.663055 166 37138ft 508kts
14-Dec-20 14:38 53.170959 -126.564138 153 37204ft 514kts
14-Dec-20 14:39 52.925294 -126.306255 158 37206ft 526kts
14-Dec-20 14:40 52.464953 -125.898661 158 37213ft 534kts
14-Dec-20 14:41 51.945096 -125.446431 158 37204ft 535kts
14-Dec-20 14:42 51.427388 -125.007350 159 37218ft 533kts
14-Dec-20 14:43 50.914542 -124.583265 157 37232ft 516kts
14-Dec-20 14:44 50.771247 -124.467622 158 37264ft 535kts
14-Dec-20 14:45 50.636878 -124.359295 157 37266ft 546kts
14-Dec-20 14:46 50.503024 -124.251278 158 37281ft 548kts
14-Dec-20 14:47 50.367342 -124.143042 158 38167ft 545kts
14-Dec-20 14:48 50.232018 -124.035915 158 38904ft 543kts
14-Dec-20 14:49 50.153483 -123.974040 158 39252ft 544kts
14-Dec-20 14:50 49.965290 -123.826677 159 39270ft 544kts
14-Dec-20 14:51 49.741450 -123.653471 158 39273ft 544kts
14-Dec-20 14:52 49.470156 -123.445470 158 39284ft 544kts
14-Dec-20 14:53 49.199045 -123.239878 159 39286ft 544kts
14-Dec-20 14:54 49.001662 -123.039289 135 39285ft 560kts
14-Dec-20 14:55 48.893393 -122.864679 134 39351ft 574kts
14-Dec-20 14:56 48.780845 -122.692016 134 39886ft 573kts
14-Dec-20 14:57 48.670543 -122.524090 134 40371ft 573kts
14-Dec-20 14:58 48.557132 -122.352482 134 40805ft 573kts
14-Dec-20 14:59 48.445291 -122.183796 135 41132ft 573kts
14-Dec-20 15:00 48.332183 -122.014813 135 41320ft 574kts
14-Dec-20 15:01 48.220272 -121.848805 135 41327ft 574kts
14-Dec-20 15:02 48.108055 -121.683448 135 41328ft 574kts
14-Dec-20 15:03 47.997158 -121.521034 135 41327ft 574kts
14-Dec-20 15:04 47.889508 -121.364407 135 41324ft 573kts
14-Dec-20 15:05 47.778070 -121.203492 136 41327ft 574kts
14-Dec-20 15:06 47.665341 -121.041413 136 41324ft 547kts
14-Dec-20 15:07 47.559541 -120.890270 136 41313ft 525kts
14-Dec-20 15:08 47.453725 -120.739998 136 41311ft 525kts
14-Dec-20 15:09 47.348318 -120.591199 136 41313ft 526kts
14-Dec-20 15:10 47.244010 -120.444799 136 41321ft 525kts
14-Dec-20 15:11 47.139035 -120.298123 137 41319ft 525kts
14-Dec-20 15:13 47.034137 -120.152172 137 41320ft 525kts
14-Dec-20 15:14 46.926762 -120.004160 136 41313ft 533kts
14-Dec-20 15:15 46.819876 -119.858094 136 41320ft 539kts
14-Dec-20 15:16 46.716918 -119.717845 135 41346ft 544kts
14-Dec-20 15:17 46.603153 -119.563507 136 41374ft 551kts
14-Dec-20 15:18 46.489916 -119.410811 136 41381ft 558kts
14-Dec-20 15:19 46.375587 -119.257334 136 41383ft 566kts
14-Dec-20 15:20 46.259431 -119.100266 132 41380ft 570kts
14-Dec-20 15:21 46.153961 -118.934960 130 41387ft 556kts
14-Dec-20 15:22 46.052091 -118.776201 131 41385ft 528kts
14-Dec-20 15:23 45.951776 -118.621148 131 41355ft 526kts
14-Dec-20 15:24 45.851582 -118.467644 131 41340ft 526kts
14-Dec-20 15:25 45.750929 -118.314319 132 41336ft 526kts
14-Dec-20 15:26 45.650480 -118.161255 132 41331ft 527kts
14-Dec-20 15:27 45.550216 -118.009757 132 41315ft 526kts
14-Dec-20 15:28 45.448739 -117.857278 132 41310ft 526kts
14-Dec-20 15:29 45.347635 -117.706221 132 41302ft 526kts
14-Dec-20 15:30 45.246352 -117.555751 132 41280ft 526kts
14-Dec-20 15:31 45.145304 -117.406461 132 41269ft 527kts
14-Dec-20 15:32 45.044552 -117.258113 132 41262ft 532kts
14-Dec-20 15:32 44.957984 -117.131378 132 41257ft 540kts
14-Dec-20 15:33 44.855607 -116.993149 134 41265ft 543kts
14-Dec-20 15:35 44.727735 -116.824751 134 41269ft 531kts
14-Dec-20 15:35 44.638133 -116.706843 134 41262ft 531kts
14-Dec-20 15:36 44.532866 -116.563034 130 41248ft 530kts
14-Dec-20 15:37 44.431003 -116.413947 131 41242ft 530kts
14-Dec-20 15:38 44.330753 -116.269220 132 41206ft 531kts
14-Dec-20 15:39 44.227725 -116.121539 132 41210ft 531kts
14-Dec-20 15:40 44.125681 -115.976271 132 41254ft 531kts
14-Dec-20 15:41 44.022100 -115.829632 132 41275ft 531kts
14-Dec-20 15:42 43.919266 -115.684835 132 41280ft 531kts
14-Dec-20 15:43 43.817899 -115.543460 132 41280ft 530kts
14-Dec-20 15:44 43.713912 -115.398730 132 41275ft 530kts
14-Dec-20 15:45 43.612280 -115.257457 132 41244ft 530kts
14-Dec-20 15:46 43.508861 -115.114593 133 41236ft 526kts
14-Dec-20 15:47 43.410132 -114.979078 133 41218ft 516kts
14-Dec-20 15:48 43.309043 -114.841018 133 41185ft 513kts
14-Dec-20 15:49 43.207309 -114.702754 133 41180ft 513kts
14-Dec-20 15:50 43.105665 -114.565269 133 41184ft 513kts
14-Dec-20 15:51 43.003780 -114.428166 133 41212ft 514kts
14-Dec-20 15:52 42.901704 -114.291250 134 41223ft 521kts
14-Dec-20 15:53 42.800132 -114.156325 134 40932ft 523kts
14-Dec-20 15:54 42.696906 -114.019591 134 39950ft 512kts
14-Dec-20 15:55 42.595101 -113.885362 134 38987ft 512kts
14-Dec-20 15:56 42.493299 -113.749073 133 37681ft 514kts
14-Dec-20 15:57 42.390653 -113.611790 133 35218ft 517kts
14-Dec-20 15:58 42.287480 -113.474689 133 32512ft 521kts
14-Dec-20 15:59 42.185239 -113.339173 134 29826ft 519kts
14-Dec-20 16:00 42.081261 -113.201667 134 26489ft 522kts
14-Dec-20 16:01 41.979951 -113.068951 134 24397ft 496kts
14-Dec-20 16:02 41.882943 -112.942562 134 22208ft 476kts
14-Dec-20 16:03 41.789293 -112.821546 133 20006ft 458kts
14-Dec-20 16:04 41.698991 -112.704794 133 17795ft 442kts
14-Dec-20 16:05 41.611744 -112.592347 133 17003ft 434kts
14-Dec-20 16:06 41.522638 -112.481273 140 17000ft 437kts
14-Dec-20 16:07 41.420625 -112.391382 144 17003ft 438kts
14-Dec-20 16:08 41.316665 -112.306206 155 16993ft 440kts
14-Dec-20 16:09 41.204737 -112.245413 150 16026ft 428kts
14-Dec-20 16:10 41.104271 -112.168905 149 13677ft 384kts
14-Dec-20 16:11 41.009908 -112.132244 171 11022ft 323kts
14-Dec-20 16:12 40.927568 -112.115197 171 10969ft 298kts
14-Dec-20 16:13 40.843894 -112.102750 175 10980ft 299kts
14-Dec-20 16:14 40.760823 -112.093000 175 11004ft 298kts
14-Dec-20 16:15 40.677673 -112.083255 175 11008ft 300kts
14-Dec-20 16:16 40.594362 -112.073520 175 11009ft 300kts
14-Dec-20 16:17 40.512014 -112.063921 175 11015ft 299kts
14-Dec-20 16:18 40.428146 -112.054183 175 10114ft 308kts
14-Dec-20 16:19 40.360173 -112.002591 99 8995ft 285kts
14-Dec-20 16:20 40.380401 -111.920553 16 8973ft 217kts
14-Dec-20 16:21 40.435976 -111.940556 1 8977ft 214kts
14-Dec-20 16:22 40.495953 -111.940721 354 8353ft 224kts
14-Dec-20 16:23 40.560617 -111.948451 354 7005ft 239kts
14-Dec-20 16:24 40.627808 -111.956189 354 6107ft 230kts
14-Dec-20 16:25 40.682972 -111.962534 354 6020ft 160kts
14-Dec-20 16:26 40.725103 -111.967416 354 5226ft 147kts
14-Dec-20 16:27 40.763084 -111.971801 354 4478ft 136kts
14-Dec-20 16:28 40.785858 -111.974593 343 4210ft 32kts

Navigation Log

Ident Type
Flight plan parsing failed, navigation log unavailable